sensor_id;sensor_type;location;lat;lon;timestamp;P1;durP1;ratioP1;P2;durP2;ratioP2
63975;SDS011;50167;47.958;21.780;2022-12-07T00:01:32;12.77;;;9.00;;
63975;SDS011;50167;47.958;21.780;2022-12-07T00:04:01;15.87;;;9.43;;
63975;SDS011;50167;47.958;21.780;2022-12-07T00:06:38;20.08;;;12.18;;
63975;SDS011;50167;47.958;21.780;2022-12-07T00:09:09;16.00;;;10.13;;
63975;SDS011;50167;47.958;21.780;2022-12-07T00:11:37;15.60;;;9.80;;
63975;SDS011;50167;47.958;21.780;2022-12-07T00:14:05;16.67;;;10.30;;
63975;SDS011;50167;47.958;21.780;2022-12-07T00:16:34;14.95;;;9.73;;
63975;SDS011;50167;47.958;21.780;2022-12-07T00:19:01;15.90;;;9.20;;
63975;SDS011;50167;47.958;21.780;2022-12-07T00:21:29;13.77;;;9.37;;
63975;SDS011;50167;47.958;21.780;2022-12-07T00:23:57;14.40;;;9.23;;
63975;SDS011;50167;47.958;21.780;2022-12-07T00:26:25;14.93;;;9.50;;
63975;SDS011;50167;47.958;21.780;2022-12-07T00:28:59;16.80;;;10.00;;
63975;SDS011;50167;47.958;21.780;2022-12-07T00:31:29;19.83;;;11.17;;
63975;SDS011;50167;47.958;21.780;2022-12-07T00:34:03;16.90;;;10.53;;
63975;SDS011;50167;47.958;21.780;2022-12-07T00:36:32;16.50;;;9.97;;
63975;SDS011;50167;47.958;21.780;2022-12-07T00:38:58;14.63;;;9.80;;
63975;SDS011;50167;47.958;21.780;2022-12-07T00:41:26;16.60;;;11.27;;
63975;SDS011;50167;47.958;21.780;2022-12-07T00:43:53;16.10;;;11.30;;
63975;SDS011;50167;47.958;21.780;2022-12-07T00:46:20;23.90;;;12.87;;
63975;SDS011;50167;47.958;21.780;2022-12-07T00:48:47;17.00;;;10.73;;
63975;SDS011;50167;47.958;21.780;2022-12-07T00:51:15;16.40;;;11.33;;
63975;SDS011;50167;47.958;21.780;2022-12-07T00:53:43;16.47;;;10.37;;
63975;SDS011;50167;47.958;21.780;2022-12-07T00:56:14;17.17;;;10.50;;
63975;SDS011;50167;47.958;21.780;2022-12-07T00:58:43;13.83;;;10.07;;
63975;SDS011;50167;47.958;21.780;2022-12-07T01:01:11;15.37;;;10.93;;
63975;SDS011;50167;47.958;21.780;2022-12-07T01:03:38;13.80;;;10.07;;
63975;SDS011;50167;47.958;21.780;2022-12-07T01:06:04;15.73;;;11.10;;
63975;SDS011;50167;47.958;21.780;2022-12-07T01:08:31;21.00;;;12.63;;
63975;SDS011;50167;47.958;21.780;2022-12-07T01:11:01;14.43;;;10.07;;
63975;SDS011;50167;47.958;21.780;2022-12-07T01:13:32;13.77;;;9.93;;
63975;SDS011;50167;47.958;21.780;2022-12-07T01:16:01;13.70;;;9.43;;
63975;SDS011;50167;47.958;21.780;2022-12-07T01:18:30;13.93;;;10.20;;
63975;SDS011;50167;47.958;21.780;2022-12-07T01:21:03;14.60;;;9.10;;
63975;SDS011;50167;47.958;21.780;2022-12-07T01:23:36;16.23;;;10.27;;
63975;SDS011;50167;47.958;21.780;2022-12-07T01:26:04;18.80;;;11.93;;
63975;SDS011;50167;47.958;21.780;2022-12-07T01:28:34;20.60;;;12.60;;
63975;SDS011;50167;47.958;21.780;2022-12-07T01:31:01;13.10;;;10.00;;
63975;SDS011;50167;47.958;21.780;2022-12-07T01:33:31;18.77;;;11.03;;
63975;SDS011;50167;47.958;21.780;2022-12-07T01:36:04;13.80;;;8.87;;
63975;SDS011;50167;47.958;21.780;2022-12-07T01:38:33;16.73;;;10.20;;
63975;SDS011;50167;47.958;21.780;2022-12-07T01:41:00;14.47;;;10.23;;
63975;SDS011;50167;47.958;21.780;2022-12-07T01:43:27;14.27;;;9.77;;
63975;SDS011;50167;47.958;21.780;2022-12-07T01:45:56;21.83;;;13.20;;
63975;SDS011;50167;47.958;21.780;2022-12-07T01:48:33;16.23;;;11.77;;
63975;SDS011;50167;47.958;21.780;2022-12-07T01:51:08;14.37;;;9.60;;
63975;SDS011;50167;47.958;21.780;2022-12-07T01:53:37;15.90;;;10.00;;
63975;SDS011;50167;47.958;21.780;2022-12-07T01:56:08;15.55;;;11.45;;
63975;SDS011;50167;47.958;21.780;2022-12-07T01:58:38;16.07;;;10.20;;
63975;SDS011;50167;47.958;21.780;2022-12-07T02:01:04;16.17;;;11.63;;
63975;SDS011;50167;47.958;21.780;2022-12-07T02:03:32;15.40;;;9.90;;
63975;SDS011;50167;47.958;21.780;2022-12-07T02:06:02;16.33;;;11.07;;
63975;SDS011;50167;47.958;21.780;2022-12-07T02:08:30;16.83;;;11.13;;
63975;SDS011;50167;47.958;21.780;2022-12-07T02:10:56;16.23;;;10.27;;
63975;SDS011;50167;47.958;21.780;2022-12-07T02:13:23;17.87;;;11.60;;
63975;SDS011;50167;47.958;21.780;2022-12-07T02:21:37;16.63;;;10.60;;
63975;SDS011;50167;47.958;21.780;2022-12-07T02:24:18;18.83;;;11.37;;
63975;SDS011;50167;47.958;21.780;2022-12-07T02:38:20;22.07;;;11.33;;
63975;SDS011;50167;47.958;21.780;2022-12-07T02:41:13;17.83;;;11.63;;
63975;SDS011;50167;47.958;21.780;2022-12-07T02:43:57;16.87;;;11.43;;
63975;SDS011;50167;47.958;21.780;2022-12-07T02:46:31;16.20;;;11.37;;
63975;SDS011;50167;47.958;21.780;2022-12-07T02:49:03;18.77;;;13.13;;
63975;SDS011;50167;47.958;21.780;2022-12-07T02:51:32;15.53;;;10.30;;
63975;SDS011;50167;47.958;21.780;2022-12-07T02:53:59;18.30;;;12.13;;
63975;SDS011;50167;47.958;21.780;2022-12-07T02:56:31;21.47;;;13.57;;
63975;SDS011;50167;47.958;21.780;2022-12-07T03:10:39;21.53;;;13.63;;
63975;SDS011;50167;47.958;21.780;2022-12-07T03:21:35;18.33;;;12.83;;
63975;SDS011;50167;47.958;21.780;2022-12-07T03:24:07;17.17;;;12.17;;
63975;SDS011;50167;47.958;21.780;2022-12-07T03:26:41;18.63;;;12.70;;
63975;SDS011;50167;47.958;21.780;2022-12-07T03:29:18;21.48;;;13.78;;
63975;SDS011;50167;47.958;21.780;2022-12-07T03:32:01;20.97;;;12.93;;
63975;SDS011;50167;47.958;21.780;2022-12-07T03:34:42;27.13;;;15.80;;
63975;SDS011;50167;47.958;21.780;2022-12-07T03:37:26;23.85;;;13.75;;
63975;SDS011;50167;47.958;21.780;2022-12-07T03:40:09;27.22;;;17.25;;
63975;SDS011;50167;47.958;21.780;2022-12-07T03:42:50;28.17;;;17.67;;
63975;SDS011;50167;47.958;21.780;2022-12-07T03:45:17;22.27;;;15.30;;
63975;SDS011;50167;47.958;21.780;2022-12-07T03:47:48;26.03;;;16.70;;
63975;SDS011;50167;47.958;21.780;2022-12-07T03:50:25;23.47;;;15.63;;
63975;SDS011;50167;47.958;21.780;2022-12-07T03:53:08;25.40;;;17.13;;
63975;SDS011;50167;47.958;21.780;2022-12-07T03:55:43;23.77;;;14.77;;
63975;SDS011;50167;47.958;21.780;2022-12-07T03:58:16;27.83;;;16.97;;
63975;SDS011;50167;47.958;21.780;2022-12-07T04:00:46;23.37;;;14.83;;
63975;SDS011;50167;47.958;21.780;2022-12-07T04:03:12;23.97;;;14.07;;
63975;SDS011;50167;47.958;21.780;2022-12-07T04:05:38;20.97;;;14.87;;
63975;SDS011;50167;47.958;21.780;2022-12-07T04:08:05;22.17;;;14.43;;
63975;SDS011;50167;47.958;21.780;2022-12-07T04:10:31;24.73;;;15.93;;
63975;SDS011;50167;47.958;21.780;2022-12-07T04:12:58;23.63;;;16.57;;
63975;SDS011;50167;47.958;21.780;2022-12-07T04:15:24;25.47;;;17.77;;
63975;SDS011;50167;47.958;21.780;2022-12-07T04:17:50;42.80;;;22.23;;
63975;SDS011;50167;47.958;21.780;2022-12-07T04:20:16;53.13;;;26.50;;
63975;SDS011;50167;47.958;21.780;2022-12-07T04:22:42;45.17;;;23.57;;
63975;SDS011;50167;47.958;21.780;2022-12-07T04:25:08;41.13;;;22.97;;
63975;SDS011;50167;47.958;21.780;2022-12-07T04:27:34;29.33;;;18.30;;
63975;SDS011;50167;47.958;21.780;2022-12-07T04:30:00;29.00;;;19.00;;
63975;SDS011;50167;47.958;21.780;2022-12-07T04:32:27;24.53;;;16.37;;
63975;SDS011;50167;47.958;21.780;2022-12-07T04:34:53;24.10;;;16.53;;
63975;SDS011;50167;47.958;21.780;2022-12-07T04:37:19;20.27;;;14.87;;
63975;SDS011;50167;47.958;21.780;2022-12-07T04:39:45;25.57;;;15.27;;
63975;SDS011;50167;47.958;21.780;2022-12-07T04:42:11;24.00;;;16.30;;
63975;SDS011;50167;47.958;21.780;2022-12-07T04:44:38;37.43;;;18.13;;
63975;SDS011;50167;47.958;21.780;2022-12-07T04:47:04;45.17;;;24.40;;
63975;SDS011;50167;47.958;21.780;2022-12-07T04:49:31;31.90;;;18.77;;
63975;SDS011;50167;47.958;21.780;2022-12-07T04:51:57;24.43;;;15.10;;
63975;SDS011;50167;47.958;21.780;2022-12-07T04:54:23;25.87;;;18.13;;
63975;SDS011;50167;47.958;21.780;2022-12-07T04:56:49;22.43;;;14.60;;
63975;SDS011;50167;47.958;21.780;2022-12-07T04:59:15;25.97;;;16.00;;
63975;SDS011;50167;47.958;21.780;2022-12-07T05:01:42;35.87;;;21.10;;
63975;SDS011;50167;47.958;21.780;2022-12-07T05:04:09;28.90;;;18.43;;
63975;SDS011;50167;47.958;21.780;2022-12-07T05:06:36;24.33;;;17.03;;
63975;SDS011;50167;47.958;21.780;2022-12-07T05:09:02;21.43;;;15.07;;
63975;SDS011;50167;47.958;21.780;2022-12-07T05:11:29;24.83;;;14.80;;
63975;SDS011;50167;47.958;21.780;2022-12-07T05:14:10;23.10;;;14.33;;
63975;SDS011;50167;47.958;21.780;2022-12-07T05:16:43;26.30;;;15.80;;
63975;SDS011;50167;47.958;21.780;2022-12-07T05:19:12;38.87;;;17.27;;
63975;SDS011;50167;47.958;21.780;2022-12-07T05:21:39;23.53;;;13.27;;
63975;SDS011;50167;47.958;21.780;2022-12-07T05:24:06;22.40;;;15.00;;
63975;SDS011;50167;47.958;21.780;2022-12-07T05:26:35;21.70;;;14.25;;
63975;SDS011;50167;47.958;21.780;2022-12-07T05:29:02;31.27;;;17.80;;
63975;SDS011;50167;47.958;21.780;2022-12-07T05:31:28;21.30;;;14.60;;
63975;SDS011;50167;47.958;21.780;2022-12-07T05:33:55;24.43;;;16.73;;
63975;SDS011;50167;47.958;21.780;2022-12-07T05:36:21;25.03;;;15.63;;
63975;SDS011;50167;47.958;21.780;2022-12-07T05:38:48;23.10;;;15.57;;
63975;SDS011;50167;47.958;21.780;2022-12-07T05:41:15;29.07;;;16.67;;
63975;SDS011;50167;47.958;21.780;2022-12-07T05:44:02;20.50;;;13.80;;
63975;SDS011;50167;47.958;21.780;2022-12-07T05:46:29;22.23;;;15.23;;
63975;SDS011;50167;47.958;21.780;2022-12-07T05:48:56;27.83;;;16.37;;
63975;SDS011;50167;47.958;21.780;2022-12-07T05:51:22;20.00;;;13.23;;
63975;SDS011;50167;47.958;21.780;2022-12-07T05:53:48;18.87;;;13.90;;
63975;SDS011;50167;47.958;21.780;2022-12-07T05:56:14;24.43;;;16.37;;
63975;SDS011;50167;47.958;21.780;2022-12-07T05:58:40;22.00;;;15.83;;
63975;SDS011;50167;47.958;21.780;2022-12-07T06:01:25;21.30;;;14.93;;
63975;SDS011;50167;47.958;21.780;2022-12-07T06:03:51;20.63;;;14.70;;
63975;SDS011;50167;47.958;21.780;2022-12-07T06:06:17;23.40;;;15.60;;
63975;SDS011;50167;47.958;21.780;2022-12-07T06:08:43;28.43;;;18.83;;
63975;SDS011;50167;47.958;21.780;2022-12-07T06:11:09;26.53;;;17.63;;
63975;SDS011;50167;47.958;21.780;2022-12-07T06:13:54;25.00;;;16.60;;
63975;SDS011;50167;47.958;21.780;2022-12-07T06:16:20;21.70;;;14.90;;
63975;SDS011;50167;47.958;21.780;2022-12-07T06:18:46;21.63;;;15.23;;
63975;SDS011;50167;47.958;21.780;2022-12-07T06:21:12;22.57;;;16.40;;
63975;SDS011;50167;47.958;21.780;2022-12-07T06:23:39;23.80;;;15.63;;
63975;SDS011;50167;47.958;21.780;2022-12-07T06:26:05;24.77;;;16.20;;
63975;SDS011;50167;47.958;21.780;2022-12-07T06:28:31;25.57;;;15.63;;
63975;SDS011;50167;47.958;21.780;2022-12-07T06:30:58;23.87;;;16.03;;
63975;SDS011;50167;47.958;21.780;2022-12-07T06:33:25;28.47;;;14.80;;
63975;SDS011;50167;47.958;21.780;2022-12-07T06:35:52;30.57;;;20.17;;
63975;SDS011;50167;47.958;21.780;2022-12-07T06:38:19;23.80;;;16.63;;
63975;SDS011;50167;47.958;21.780;2022-12-07T06:40:45;24.77;;;18.10;;
63975;SDS011;50167;47.958;21.780;2022-12-07T06:43:11;20.67;;;14.80;;
63975;SDS011;50167;47.958;21.780;2022-12-07T06:45:37;23.90;;;16.73;;
63975;SDS011;50167;47.958;21.780;2022-12-07T06:48:04;24.43;;;16.60;;
63975;SDS011;50167;47.958;21.780;2022-12-07T06:50:30;20.07;;;14.73;;
63975;SDS011;50167;47.958;21.780;2022-12-07T06:52:56;20.70;;;14.57;;
63975;SDS011;50167;47.958;21.780;2022-12-07T06:55:22;23.70;;;15.70;;
63975;SDS011;50167;47.958;21.780;2022-12-07T06:57:48;22.83;;;16.40;;
63975;SDS011;50167;47.958;21.780;2022-12-07T07:00:15;21.60;;;15.33;;
63975;SDS011;50167;47.958;21.780;2022-12-07T07:02:41;17.80;;;13.27;;
63975;SDS011;50167;47.958;21.780;2022-12-07T07:05:08;23.17;;;16.07;;
63975;SDS011;50167;47.958;21.780;2022-12-07T07:07:34;26.07;;;15.03;;
63975;SDS011;50167;47.958;21.780;2022-12-07T07:10:00;20.93;;;12.63;;
63975;SDS011;50167;47.958;21.780;2022-12-07T07:12:26;19.47;;;13.37;;
63975;SDS011;50167;47.958;21.780;2022-12-07T07:14:52;20.73;;;14.57;;
63975;SDS011;50167;47.958;21.780;2022-12-07T07:17:18;17.97;;;12.63;;
63975;SDS011;50167;47.958;21.780;2022-12-07T07:19:44;19.37;;;12.80;;
63975;SDS011;50167;47.958;21.780;2022-12-07T07:22:10;21.93;;;14.97;;
63975;SDS011;50167;47.958;21.780;2022-12-07T07:24:36;18.23;;;13.47;;
63975;SDS011;50167;47.958;21.780;2022-12-07T07:27:02;18.33;;;12.53;;
63975;SDS011;50167;47.958;21.780;2022-12-07T07:29:28;20.23;;;14.20;;
63975;SDS011;50167;47.958;21.780;2022-12-07T07:31:55;20.37;;;13.43;;
63975;SDS011;50167;47.958;21.780;2022-12-07T07:34:21;18.43;;;13.90;;
63975;SDS011;50167;47.958;21.780;2022-12-07T07:36:47;20.20;;;13.87;;
63975;SDS011;50167;47.958;21.780;2022-12-07T07:39:13;19.17;;;13.43;;
63975;SDS011;50167;47.958;21.780;2022-12-07T07:41:39;20.50;;;12.60;;
63975;SDS011;50167;47.958;21.780;2022-12-07T07:44:05;21.20;;;13.33;;
63975;SDS011;50167;47.958;21.780;2022-12-07T07:46:34;18.27;;;13.67;;
63975;SDS011;50167;47.958;21.780;2022-12-07T07:49:10;20.30;;;14.07;;
63975;SDS011;50167;47.958;21.780;2022-12-07T07:51:46;18.13;;;13.20;;
63975;SDS011;50167;47.958;21.780;2022-12-07T07:54:12;16.13;;;12.03;;
63975;SDS011;50167;47.958;21.780;2022-12-07T07:56:38;17.30;;;12.67;;
63975;SDS011;50167;47.958;21.780;2022-12-07T07:59:04;21.70;;;12.60;;
63975;SDS011;50167;47.958;21.780;2022-12-07T08:01:31;16.20;;;11.73;;
63975;SDS011;50167;47.958;21.780;2022-12-07T08:03:57;20.67;;;13.07;;
63975;SDS011;50167;47.958;21.780;2022-12-07T08:06:23;18.40;;;12.60;;
63975;SDS011;50167;47.958;21.780;2022-12-07T08:08:49;21.33;;;14.23;;
63975;SDS011;50167;47.958;21.780;2022-12-07T08:11:15;21.17;;;13.83;;
63975;SDS011;50167;47.958;21.780;2022-12-07T08:13:41;21.03;;;13.73;;
63975;SDS011;50167;47.958;21.780;2022-12-07T08:16:08;21.73;;;15.63;;
63975;SDS011;50167;47.958;21.780;2022-12-07T08:18:41;21.80;;;16.07;;
63975;SDS011;50167;47.958;21.780;2022-12-07T08:21:05;23.63;;;15.10;;
63975;SDS011;50167;47.958;21.780;2022-12-07T08:23:34;20.00;;;14.77;;
63975;SDS011;50167;47.958;21.780;2022-12-07T08:26:01;24.60;;;15.43;;
63975;SDS011;50167;47.958;21.780;2022-12-07T08:28:28;19.53;;;13.60;;
63975;SDS011;50167;47.958;21.780;2022-12-07T08:31:08;20.60;;;13.20;;
63975;SDS011;50167;47.958;21.780;2022-12-07T08:33:41;23.00;;;16.03;;
63975;SDS011;50167;47.958;21.780;2022-12-07T08:36:08;21.27;;;14.90;;
63975;SDS011;50167;47.958;21.780;2022-12-07T08:38:37;20.13;;;14.47;;
63975;SDS011;50167;47.958;21.780;2022-12-07T08:41:05;19.90;;;14.57;;
63975;SDS011;50167;47.958;21.780;2022-12-07T08:43:33;20.70;;;14.20;;
63975;SDS011;50167;47.958;21.780;2022-12-07T08:48:42;17.57;;;12.50;;
63975;SDS011;50167;47.958;21.780;2022-12-07T08:51:12;22.70;;;16.80;;
63975;SDS011;50167;47.958;21.780;2022-12-07T08:53:38;17.93;;;13.80;;
63975;SDS011;50167;47.958;21.780;2022-12-07T08:56:06;21.67;;;16.40;;
63975;SDS011;50167;47.958;21.780;2022-12-07T08:58:34;21.30;;;14.53;;
63975;SDS011;50167;47.958;21.780;2022-12-07T09:01:02;23.97;;;17.03;;
63975;SDS011;50167;47.958;21.780;2022-12-07T09:03:30;24.50;;;14.40;;
63975;SDS011;50167;47.958;21.780;2022-12-07T09:05:57;21.43;;;15.60;;
63975;SDS011;50167;47.958;21.780;2022-12-07T09:08:26;24.87;;;15.57;;
63975;SDS011;50167;47.958;21.780;2022-12-07T09:10:58;24.97;;;14.83;;
63975;SDS011;50167;47.958;21.780;2022-12-07T09:13:24;24.30;;;14.83;;
63975;SDS011;50167;47.958;21.780;2022-12-07T09:15:50;21.63;;;14.83;;
63975;SDS011;50167;47.958;21.780;2022-12-07T09:18:16;22.90;;;15.43;;
63975;SDS011;50167;47.958;21.780;2022-12-07T09:20:42;22.03;;;15.20;;
63975;SDS011;50167;47.958;21.780;2022-12-07T09:23:08;22.53;;;14.73;;
63975;SDS011;50167;47.958;21.780;2022-12-07T09:25:34;21.27;;;15.77;;
63975;SDS011;50167;47.958;21.780;2022-12-07T09:28:00;21.80;;;14.57;;
63975;SDS011;50167;47.958;21.780;2022-12-07T09:30:27;23.83;;;15.43;;
63975;SDS011;50167;47.958;21.780;2022-12-07T09:32:54;24.37;;;16.00;;
63975;SDS011;50167;47.958;21.780;2022-12-07T09:35:22;23.20;;;17.13;;
63975;SDS011;50167;47.958;21.780;2022-12-07T09:37:49;23.23;;;16.60;;
63975;SDS011;50167;47.958;21.780;2022-12-07T09:40:15;21.77;;;15.10;;
63975;SDS011;50167;47.958;21.780;2022-12-07T09:42:45;19.83;;;13.57;;
63975;SDS011;50167;47.958;21.780;2022-12-07T09:45:21;23.07;;;14.33;;
63975;SDS011;50167;47.958;21.780;2022-12-07T09:47:53;22.33;;;14.97;;
63975;SDS011;50167;47.958;21.780;2022-12-07T09:50:21;17.47;;;13.47;;
63975;SDS011;50167;47.958;21.780;2022-12-07T09:52:54;16.53;;;11.83;;
63975;SDS011;50167;47.958;21.780;2022-12-07T09:55:30;16.33;;;12.00;;
63975;SDS011;50167;47.958;21.780;2022-12-07T09:57:59;15.80;;;11.43;;
63975;SDS011;50167;47.958;21.780;2022-12-07T10:00:25;19.23;;;13.30;;
63975;SDS011;50167;47.958;21.780;2022-12-07T10:02:54;18.33;;;12.40;;
63975;SDS011;50167;47.958;21.780;2022-12-07T10:05:27;16.63;;;11.53;;
63975;SDS011;50167;47.958;21.780;2022-12-07T10:08:00;15.17;;;11.63;;
63975;SDS011;50167;47.958;21.780;2022-12-07T10:10:29;16.93;;;11.10;;
63975;SDS011;50167;47.958;21.780;2022-12-07T10:13:07;19.67;;;13.97;;
63975;SDS011;50167;47.958;21.780;2022-12-07T10:18:36;16.67;;;11.45;;
63975;SDS011;50167;47.958;21.780;2022-12-07T10:21:16;15.63;;;10.20;;
63975;SDS011;50167;47.958;21.780;2022-12-07T10:29:18;14.00;;;10.63;;
63975;SDS011;50167;47.958;21.780;2022-12-07T10:34:31;17.50;;;12.40;;
63975;SDS011;50167;47.958;21.780;2022-12-07T10:40:02;22.65;;;14.63;;
63975;SDS011;50167;47.958;21.780;2022-12-07T10:42:18;16.80;;;12.60;;
63975;SDS011;50167;47.958;21.780;2022-12-07T11:00:24;20.57;;;15.73;;
63975;SDS011;50167;47.958;21.780;2022-12-07T11:11:50;22.80;;;15.73;;
63975;SDS011;50167;47.958;21.780;2022-12-07T11:14:44;18.50;;;13.70;;
63975;SDS011;50167;47.958;21.780;2022-12-07T11:17:17;22.37;;;17.10;;
63975;SDS011;50167;47.958;21.780;2022-12-07T11:33:34;20.60;;;15.07;;
63975;SDS011;50167;47.958;21.780;2022-12-07T11:40:03;17.60;;;13.30;;
63975;SDS011;50167;47.958;21.780;2022-12-07T11:43:01;18.50;;;12.53;;
63975;SDS011;50167;47.958;21.780;2022-12-07T11:45:37;17.57;;;13.43;;
63975;SDS011;50167;47.958;21.780;2022-12-07T11:48:11;19.00;;;14.03;;
63975;SDS011;50167;47.958;21.780;2022-12-07T11:50:48;16.40;;;13.58;;
63975;SDS011;50167;47.958;21.780;2022-12-07T11:53:22;20.97;;;14.30;;
63975;SDS011;50167;47.958;21.780;2022-12-07T11:55:54;22.00;;;16.40;;
63975;SDS011;50167;47.958;21.780;2022-12-07T11:59:12;21.50;;;14.10;;
63975;SDS011;50167;47.958;21.780;2022-12-07T12:07:15;20.90;;;15.20;;
63975;SDS011;50167;47.958;21.780;2022-12-07T12:20:26;21.97;;;15.05;;
63975;SDS011;50167;47.958;21.780;2022-12-07T12:22:57;17.27;;;13.47;;
63975;SDS011;50167;47.958;21.780;2022-12-07T12:25:45;17.67;;;13.23;;
63975;SDS011;50167;47.958;21.780;2022-12-07T12:31:13;20.27;;;14.53;;
63975;SDS011;50167;47.958;21.780;2022-12-07T12:33:51;21.10;;;15.08;;
63975;SDS011;50167;47.958;21.780;2022-12-07T12:39:14;18.13;;;13.80;;
63975;SDS011;50167;47.958;21.780;2022-12-07T12:51:53;17.10;;;13.37;;
63975;SDS011;50167;47.958;21.780;2022-12-07T12:54:32;19.63;;;14.67;;
63975;SDS011;50167;47.958;21.780;2022-12-07T12:59:40;57.23;;;31.87;;
63975;SDS011;50167;47.958;21.780;2022-12-07T13:02:28;22.13;;;15.30;;
63975;SDS011;50167;47.958;21.780;2022-12-07T13:15:38;18.07;;;13.03;;
63975;SDS011;50167;47.958;21.780;2022-12-07T13:18:42;21.20;;;15.77;;
63975;SDS011;50167;47.958;21.780;2022-12-07T13:31:53;16.37;;;13.62;;
63975;SDS011;50167;47.958;21.780;2022-12-07T13:34:32;17.93;;;12.90;;
63975;SDS011;50167;47.958;21.780;2022-12-07T13:39:57;20.07;;;14.87;;
63975;SDS011;50167;47.958;21.780;2022-12-07T13:42:27;17.07;;;12.97;;
63975;SDS011;50167;47.958;21.780;2022-12-07T13:44:59;17.33;;;13.80;;
63975;SDS011;50167;47.958;21.780;2022-12-07T13:47:46;18.83;;;13.20;;
63975;SDS011;50167;47.958;21.780;2022-12-07T13:52:57;18.63;;;13.87;;
63975;SDS011;50167;47.958;21.780;2022-12-07T13:55:25;17.27;;;13.00;;
63975;SDS011;50167;47.958;21.780;2022-12-07T13:57:54;19.63;;;15.07;;
63975;SDS011;50167;47.958;21.780;2022-12-07T14:00:22;17.83;;;13.27;;
63975;SDS011;50167;47.958;21.780;2022-12-07T14:02:59;19.40;;;15.13;;
63975;SDS011;50167;47.958;21.780;2022-12-07T14:05:32;19.67;;;14.57;;
63975;SDS011;50167;47.958;21.780;2022-12-07T14:08:02;23.67;;;15.87;;
63975;SDS011;50167;47.958;21.780;2022-12-07T14:16:01;18.07;;;12.80;;
63975;SDS011;50167;47.958;21.780;2022-12-07T14:18:35;22.20;;;15.37;;
63975;SDS011;50167;47.958;21.780;2022-12-07T14:23:43;26.43;;;16.30;;
63975;SDS011;50167;47.958;21.780;2022-12-07T14:26:12;23.57;;;15.87;;
63975;SDS011;50167;47.958;21.780;2022-12-07T14:28:46;25.80;;;18.13;;
63975;SDS011;50167;47.958;21.780;2022-12-07T14:31:14;41.40;;;24.63;;
63975;SDS011;50167;47.958;21.780;2022-12-07T14:33:46;32.37;;;20.97;;
63975;SDS011;50167;47.958;21.780;2022-12-07T14:36:12;35.03;;;19.70;;
63975;SDS011;50167;47.958;21.780;2022-12-07T14:38:40;31.63;;;19.77;;
63975;SDS011;50167;47.958;21.780;2022-12-07T14:41:10;24.03;;;17.20;;
63975;SDS011;50167;47.958;21.780;2022-12-07T14:44:07;35.73;;;22.07;;
63975;SDS011;50167;47.958;21.780;2022-12-07T14:46:38;42.03;;;25.40;;
63975;SDS011;50167;47.958;21.780;2022-12-07T14:49:04;53.23;;;31.53;;
63975;SDS011;50167;47.958;21.780;2022-12-07T14:51:30;46.83;;;29.17;;
63975;SDS011;50167;47.958;21.780;2022-12-07T14:54:00;37.57;;;24.17;;
63975;SDS011;50167;47.958;21.780;2022-12-07T14:56:26;37.73;;;25.10;;
63975;SDS011;50167;47.958;21.780;2022-12-07T14:58:56;39.80;;;26.27;;
63975;SDS011;50167;47.958;21.780;2022-12-07T15:01:22;48.93;;;27.60;;
63975;SDS011;50167;47.958;21.780;2022-12-07T15:03:48;50.30;;;29.03;;
63975;SDS011;50167;47.958;21.780;2022-12-07T15:06:16;38.33;;;24.37;;
63975;SDS011;50167;47.958;21.780;2022-12-07T15:08:45;36.43;;;24.20;;
63975;SDS011;50167;47.958;21.780;2022-12-07T15:11:13;35.83;;;21.53;;
63975;SDS011;50167;47.958;21.780;2022-12-07T15:13:40;29.53;;;19.57;;
63975;SDS011;50167;47.958;21.780;2022-12-07T15:16:25;41.73;;;29.43;;
63975;SDS011;50167;47.958;21.780;2022-12-07T15:18:51;39.13;;;28.93;;
63975;SDS011;50167;47.958;21.780;2022-12-07T15:21:18;34.93;;;25.13;;
63975;SDS011;50167;47.958;21.780;2022-12-07T15:23:45;33.40;;;21.27;;
63975;SDS011;50167;47.958;21.780;2022-12-07T15:26:12;37.30;;;22.23;;
63975;SDS011;50167;47.958;21.780;2022-12-07T15:28:39;36.33;;;22.50;;
63975;SDS011;50167;47.958;21.780;2022-12-07T15:31:12;34.10;;;20.70;;
63975;SDS011;50167;47.958;21.780;2022-12-07T15:33:40;43.13;;;26.80;;
63975;SDS011;50167;47.958;21.780;2022-12-07T15:36:15;52.40;;;30.73;;
63975;SDS011;50167;47.958;21.780;2022-12-07T15:38:47;35.20;;;25.17;;
63975;SDS011;50167;47.958;21.780;2022-12-07T15:41:14;32.47;;;22.50;;
63975;SDS011;50167;47.958;21.780;2022-12-07T15:43:41;36.23;;;23.17;;
63975;SDS011;50167;47.958;21.780;2022-12-07T15:46:32;38.67;;;23.07;;
63975;SDS011;50167;47.958;21.780;2022-12-07T15:49:02;41.63;;;29.27;;
63975;SDS011;50167;47.958;21.780;2022-12-07T15:51:31;57.73;;;41.20;;
63975;SDS011;50167;47.958;21.780;2022-12-07T15:53:57;49.77;;;33.40;;
63975;SDS011;50167;47.958;21.780;2022-12-07T15:56:24;30.00;;;23.00;;
63975;SDS011;50167;47.958;21.780;2022-12-07T15:58:50;27.37;;;18.67;;
63975;SDS011;50167;47.958;21.780;2022-12-07T16:01:17;25.77;;;18.33;;
63975;SDS011;50167;47.958;21.780;2022-12-07T16:03:45;42.53;;;22.47;;
63975;SDS011;50167;47.958;21.780;2022-12-07T16:06:12;39.07;;;25.67;;
63975;SDS011;50167;47.958;21.780;2022-12-07T16:08:44;42.97;;;28.43;;
63975;SDS011;50167;47.958;21.780;2022-12-07T16:11:12;40.03;;;26.57;;
63975;SDS011;50167;47.958;21.780;2022-12-07T16:13:39;40.00;;;24.53;;
63975;SDS011;50167;47.958;21.780;2022-12-07T16:16:21;61.00;;;35.93;;
63975;SDS011;50167;47.958;21.780;2022-12-07T16:18:48;122.43;;;56.00;;
63975;SDS011;50167;47.958;21.780;2022-12-07T16:21:15;121.63;;;59.07;;
63975;SDS011;50167;47.958;21.780;2022-12-07T16:23:43;56.00;;;31.37;;
63975;SDS011;50167;47.958;21.780;2022-12-07T16:26:16;57.43;;;31.17;;
63975;SDS011;50167;47.958;21.780;2022-12-07T16:28:45;45.63;;;28.50;;
63975;SDS011;50167;47.958;21.780;2022-12-07T16:31:18;37.53;;;23.83;;
63975;SDS011;50167;47.958;21.780;2022-12-07T16:33:47;32.67;;;20.27;;
63975;SDS011;50167;47.958;21.780;2022-12-07T16:36:14;26.73;;;17.30;;
63975;SDS011;50167;47.958;21.780;2022-12-07T16:38:42;30.17;;;19.70;;
63975;SDS011;50167;47.958;21.780;2022-12-07T16:41:09;29.67;;;19.83;;
63975;SDS011;50167;47.958;21.780;2022-12-07T16:43:36;32.97;;;20.60;;
63975;SDS011;50167;47.958;21.780;2022-12-07T16:46:02;30.33;;;20.60;;
63975;SDS011;50167;47.958;21.780;2022-12-07T16:48:29;29.67;;;20.03;;
63975;SDS011;50167;47.958;21.780;2022-12-07T16:50:56;32.37;;;19.73;;
63975;SDS011;50167;47.958;21.780;2022-12-07T16:53:23;32.23;;;19.43;;
63975;SDS011;50167;47.958;21.780;2022-12-07T16:55:49;27.37;;;19.57;;
63975;SDS011;50167;47.958;21.780;2022-12-07T16:58:16;31.80;;;21.73;;
63975;SDS011;50167;47.958;21.780;2022-12-07T17:00:43;31.53;;;18.70;;
63975;SDS011;50167;47.958;21.780;2022-12-07T17:03:11;40.60;;;24.37;;
63975;SDS011;50167;47.958;21.780;2022-12-07T17:05:38;39.30;;;26.10;;
63975;SDS011;50167;47.958;21.780;2022-12-07T17:08:07;46.37;;;30.13;;
63975;SDS011;50167;47.958;21.780;2022-12-07T17:10:35;42.27;;;26.63;;